createdAt,value
2024-03-06T00:00:41.392Z,5.04
2024-03-06T00:05:47.067Z,4.94
2024-03-06T00:10:52.741Z,4.83
2024-03-06T00:15:58.611Z,4.79
2024-03-06T00:21:04.368Z,4.82
2024-03-06T00:26:11.566Z,4.86
2024-03-06T00:31:17.341Z,4.93
2024-03-06T00:36:24.041Z,4.94
2024-03-06T00:41:29.702Z,4.94
2024-03-06T00:46:36.023Z,4.91
2024-03-06T00:51:45.299Z,4.86
2024-03-06T00:56:49.153Z,4.81
2024-03-06T01:01:56.495Z,4.71
2024-03-06T01:07:02.246Z,4.60
2024-03-06T01:12:08.009Z,4.47
2024-03-06T01:17:13.924Z,4.46
2024-03-06T01:22:19.640Z,4.44
2024-03-06T01:27:25.273Z,4.41
2024-03-06T01:32:31.516Z,4.40
2024-03-06T01:37:37.432Z,4.46
2024-03-06T01:42:43.145Z,4.61
2024-03-06T01:47:48.997Z,4.79
2024-03-06T01:52:54.907Z,4.79
2024-03-06T01:58:00.743Z,4.83
2024-03-06T02:03:06.520Z,4.91
2024-03-06T02:08:12.615Z,4.95
2024-03-06T02:13:19.564Z,4.98
2024-03-06T02:18:25.387Z,5.02
2024-03-06T02:23:31.332Z,5.09
2024-03-06T02:28:37.242Z,5.15
2024-03-06T02:33:43.090Z,5.11
2024-03-06T02:38:49.878Z,5.17
2024-03-06T02:43:55.682Z,5.30
2024-03-06T02:49:01.612Z,5.34
2024-03-06T02:54:07.505Z,5.36
2024-03-06T02:59:13.390Z,5.34
2024-03-06T03:04:19.022Z,5.36
2024-03-06T03:09:24.578Z,5.35
2024-03-06T03:14:30.401Z,5.31
2024-03-06T03:19:36.339Z,5.10
2024-03-06T03:24:46.383Z,5.08
2024-03-06T03:29:51.982Z,5.01
2024-03-06T03:34:57.661Z,4.93
2024-03-06T03:40:04.378Z,4.76
2024-03-06T03:45:10.857Z,4.61
2024-03-06T03:50:16.744Z,4.47
2024-03-06T03:55:22.342Z,4.42
2024-03-06T04:00:28.033Z,4.22
2024-03-06T04:05:33.609Z,4.21
2024-03-06T04:10:41.045Z,4.21
2024-03-06T04:15:46.732Z,4.16
2024-03-06T04:20:52.344Z,4.17
2024-03-06T04:25:58.095Z,4.02
2024-03-06T04:31:04.169Z,3.74
2024-03-06T04:36:10.554Z,3.39
2024-03-06T04:41:16.356Z,3.12
2024-03-06T04:46:22.083Z,2.92
2024-03-06T04:51:27.662Z,2.74
2024-03-06T04:56:33.232Z,2.58
2024-03-06T05:01:38.936Z,2.39
2024-03-06T06:00:46.035Z,3.26
2024-03-06T06:05:51.785Z,3.45
2024-03-06T06:10:57.629Z,3.64
2024-03-06T06:16:05.017Z,3.85
2024-03-06T06:21:10.792Z,4.04
2024-03-06T06:26:17.095Z,4.22
2024-03-06T06:31:22.743Z,4.43
2024-03-06T06:36:28.914Z,4.56
2024-03-06T06:41:34.662Z,4.85
2024-03-06T06:46:42.084Z,4.88
2024-03-06T06:51:48.057Z,4.94
2024-03-06T06:56:55.372Z,5.12
2024-03-06T07:02:01.152Z,5.12
2024-03-06T07:07:06.924Z,5.27
2024-03-06T07:12:12.601Z,5.51
2024-03-06T07:17:18.266Z,5.71
2024-03-06T07:22:24.113Z,5.83
2024-03-06T07:27:29.790Z,6.06
2024-03-06T07:32:35.507Z,6.16
2024-03-06T07:37:41.325Z,6.33
2024-03-06T07:42:47.020Z,6.49
2024-03-06T07:47:52.853Z,6.72
2024-03-06T07:52:58.598Z,6.89
2024-03-06T07:58:04.427Z,7.12
2024-03-06T08:03:10.080Z,7.29
2024-03-06T08:08:15.777Z,7.48
2024-03-06T08:13:21.627Z,7.69
2024-03-06T08:18:28.595Z,7.76
2024-03-06T08:23:34.897Z,7.92
2024-03-06T08:28:40.849Z,7.85
2024-03-06T08:33:46.744Z,7.89
2024-03-06T08:38:52.913Z,7.86
2024-03-06T08:43:58.641Z,8.08
2024-03-06T08:49:07.181Z,8.24
2024-03-06T08:54:14.685Z,8.06
2024-03-06T08:59:19.394Z,7.89
2024-03-06T09:04:25.352Z,8.07
2024-03-06T09:09:30.905Z,8.25
2024-03-06T09:14:37.429Z,8.18
2024-03-06T09:24:51.387Z,8.45
2024-03-06T09:29:57.768Z,8.58
2024-03-06T09:35:04.485Z,8.78
2024-03-06T09:40:12.173Z,8.46
2024-03-06T09:45:18.606Z,8.48
2024-03-06T09:50:28.590Z,8.75
2024-03-06T09:55:36.839Z,8.95
2024-03-06T10:00:42.695Z,8.58
2024-03-06T10:05:48.357Z,8.47
2024-03-06T10:10:54.847Z,9.00
2024-03-06T10:16:04.484Z,9.26
2024-03-06T10:21:10.614Z,9.86
2024-03-06T10:26:16.441Z,9.63
2024-03-06T10:31:32.604Z,9.30
2024-03-06T10:36:38.577Z,9.62
2024-03-06T10:41:46.070Z,9.70
2024-03-06T10:47:02.975Z,9.98
2024-03-06T10:52:09.123Z,9.66
2024-03-06T10:57:16.234Z,9.53
2024-03-06T11:02:23.288Z,9.54
2024-03-06T11:07:29.157Z,9.72
2024-03-06T11:12:41.448Z,9.42
2024-03-06T11:17:47.321Z,9.43
2024-03-06T11:23:03.742Z,9.15
2024-03-06T11:28:10.776Z,8.91
2024-03-06T11:33:18.438Z,9.14
2024-03-06T11:38:25.910Z,9.04
2024-03-06T11:43:32.498Z,9.02
2024-03-06T11:48:42.147Z,9.09
2024-03-06T11:53:48.845Z,8.99
2024-03-06T11:58:54.773Z,9.08
2024-03-06T12:04:03.339Z,9.29
2024-03-06T12:09:09.432Z,8.84
2024-03-06T12:14:23.351Z,8.71
2024-03-06T12:19:29.752Z,8.77
2024-03-06T12:24:35.536Z,9.34
2024-03-06T12:29:42.830Z,9.97
2024-03-06T12:35:01.831Z,9.87
2024-03-06T12:40:10.755Z,9.90
2024-03-06T12:45:16.762Z,9.84
2024-03-06T12:50:22.469Z,9.76
2024-03-06T12:55:28.901Z,9.56
2024-03-06T13:00:34.674Z,9.45
2024-03-06T13:05:40.395Z,9.42
2024-03-06T13:10:46.409Z,9.47
2024-03-06T13:15:55.665Z,9.38
2024-03-06T13:21:02.101Z,9.18
2024-03-06T13:26:07.764Z,9.26
2024-03-06T13:31:13.253Z,9.32
2024-03-06T13:36:19.081Z,9.33
2024-03-06T13:41:27.691Z,9.30
2024-03-06T13:46:32.635Z,9.06
2024-03-06T13:51:38.628Z,9.05
2024-03-06T13:56:45.147Z,9.10
2024-03-06T14:01:50.870Z,9.03
2024-03-06T14:06:58.387Z,8.88
2024-03-06T14:12:04.805Z,8.84
2024-03-06T14:17:10.750Z,8.74
2024-03-06T14:22:18.086Z,8.77
2024-03-06T14:27:23.957Z,8.95
2024-03-06T14:32:29.822Z,9.00
2024-03-06T14:37:35.780Z,8.96
2024-03-06T14:42:41.430Z,9.02
2024-03-06T14:47:47.208Z,8.79
2024-03-06T14:52:53.026Z,8.99
2024-03-06T14:57:58.754Z,8.89
2024-03-06T15:03:04.820Z,8.75
2024-03-06T15:08:10.652Z,8.64
2024-03-06T15:13:17.698Z,8.59
2024-03-06T15:18:23.697Z,8.60
2024-03-06T15:23:30.005Z,8.57
2024-03-06T15:28:35.922Z,8.56
2024-03-06T15:33:41.828Z,8.58
2024-03-06T15:38:47.698Z,8.63
2024-03-06T15:43:53.656Z,8.55
2024-03-06T15:48:59.899Z,8.47
2024-03-06T15:54:05.893Z,8.40
2024-03-06T15:59:11.694Z,8.17
2024-03-06T16:04:17.539Z,8.05
2024-03-06T16:09:23.717Z,8.05
2024-03-06T16:14:29.401Z,8.02
2024-03-06T16:19:42.518Z,8.06
2024-03-06T16:24:46.263Z,7.96
2024-03-06T16:29:52.555Z,7.84
2024-03-06T16:34:58.514Z,7.86
2024-03-06T16:40:04.478Z,7.90
2024-03-06T16:45:12.833Z,7.91
2024-03-06T16:50:20.635Z,7.91
2024-03-06T16:55:27.314Z,7.85
2024-03-06T17:00:33.928Z,7.84
2024-03-06T17:05:40.013Z,7.80
2024-03-06T17:10:46.194Z,7.78
2024-03-06T17:15:52.433Z,7.80
2024-03-06T17:20:58.225Z,7.82
2024-03-06T17:26:04.571Z,7.73
2024-03-06T17:31:10.669Z,7.86
2024-03-06T17:36:16.344Z,7.90
2024-03-06T17:41:22.187Z,7.75
2024-03-06T17:46:28.021Z,7.75
2024-03-06T17:51:36.514Z,7.80
2024-03-06T17:56:42.906Z,7.85
2024-03-06T18:01:48.665Z,7.83
2024-03-06T18:06:54.215Z,7.87
2024-03-06T18:12:00.417Z,7.92
2024-03-06T18:17:06.398Z,7.85
2024-03-06T18:22:12.266Z,7.82
2024-03-06T18:27:18.051Z,7.68
2024-03-06T18:32:23.800Z,7.62
2024-03-06T18:37:29.570Z,7.57
2024-03-06T18:42:35.233Z,7.60
2024-03-06T18:47:41.986Z,7.69
2024-03-06T18:52:47.890Z,7.67
2024-03-06T18:57:54.351Z,7.65
2024-03-06T19:03:00.004Z,7.64
2024-03-06T19:08:06.396Z,7.61
2024-03-06T19:13:12.260Z,7.58
2024-03-06T19:18:17.973Z,7.52
2024-03-06T19:23:24.784Z,7.52
2024-03-06T19:28:30.449Z,7.47
2024-03-06T19:33:36.210Z,7.45
2024-03-06T19:38:41.934Z,7.54
2024-03-06T19:43:47.629Z,7.53
2024-03-06T19:48:53.201Z,7.50
2024-03-06T19:53:58.857Z,7.53
2024-03-06T19:59:05.567Z,7.58
2024-03-06T20:04:11.327Z,7.56
2024-03-06T20:09:17.174Z,7.36
2024-03-06T20:14:23.095Z,7.41
2024-03-06T20:19:28.837Z,7.35
2024-03-06T20:24:35.430Z,7.14
2024-03-06T20:29:45.068Z,7.23
2024-03-06T20:34:50.654Z,6.45
2024-03-06T20:39:56.240Z,7.19
2024-03-06T20:45:02.915Z,7.18
2024-03-06T20:50:09.257Z,7.18
2024-03-06T20:55:15.132Z,7.18
2024-03-06T21:00:22.650Z,7.09
2024-03-06T21:05:37.296Z,6.99
2024-03-06T21:10:45.861Z,6.88
2024-03-06T21:15:51.840Z,6.69
2024-03-06T21:20:57.611Z,6.58
2024-03-06T21:26:04.736Z,6.48
2024-03-06T21:31:10.611Z,6.32
2024-03-06T21:36:16.527Z,6.30
2024-03-06T21:41:22.405Z,6.16
2024-03-06T21:46:28.737Z,6.06
2024-03-06T21:51:34.912Z,5.77
2024-03-06T21:56:41.018Z,5.47
2024-03-06T22:01:46.826Z,5.25
2024-03-06T22:06:52.635Z,5.13
2024-03-06T22:12:01.164Z,5.06
2024-03-06T22:17:08.393Z,5.13
2024-03-06T22:22:15.775Z,5.20
2024-03-06T22:27:21.693Z,5.21
2024-03-06T22:32:27.407Z,5.26
2024-03-06T22:37:33.218Z,5.27
2024-03-06T22:42:38.972Z,5.21
2024-03-06T22:47:44.976Z,4.76
2024-03-06T22:52:50.706Z,4.76
2024-03-06T22:57:58.073Z,4.51
2024-03-06T23:03:03.708Z,4.32
2024-03-06T23:08:09.383Z,4.21
2024-03-06T23:13:19.285Z,4.02
2024-03-06T23:18:26.503Z,3.86
2024-03-06T23:23:32.926Z,3.69
2024-03-06T23:28:38.684Z,3.54
2024-03-06T23:33:45.368Z,3.41
2024-03-06T23:38:51.125Z,3.36
2024-03-06T23:43:56.803Z,3.39
2024-03-06T23:49:04.429Z,3.50
2024-03-06T23:54:10.184Z,3.58
2024-03-06T23:59:15.985Z,3.62
